Time;durP1;ratioP1;P1;durP2;ratioP2;P2;SDS_P1;SDS_P2;PMS_P1;PMS_P2;Temp;Humidity;BMP_temperature;BMP_pressure;BME280_temperature;BME280_humidity;BME280_pressure;Samples;Min_cycle;Max_cycle;Signal;HPM_P1;HPM_P2
2020/12/27 00:00:33;;;;;;;3.47;3.27;;;5.60;98.60;;;;;;5012398;28;20175;-80
2020/12/27 00:02:59;;;;;;;3.50;3.30;;;5.70;98.30;;;;;;5004745;28;20485;-80
2020/12/27 00:05:25;;;;;;;4.00;3.80;;;5.70;98.50;;;;;;5004724;28;20257;-80
2020/12/27 00:07:50;;;;;;;3.50;3.30;;;5.60;98.50;;;;;;5009152;28;20670;-80
2020/12/27 00:10:16;;;;;;;4.03;3.73;;;5.70;98.40;;;;;;5004790;28;20651;-77
2020/12/27 00:12:42;;;;;;;3.90;3.70;;;5.80;98.30;;;;;;5000639;28;20207;-77
2020/12/27 00:15:08;;;;;;;4.53;4.20;;;5.80;98.00;;;;;;5010348;28;20190;-77
2020/12/27 00:17:33;;;;;;;3.57;3.37;;;5.80;98.20;;;;;;5005908;28;20187;-77
2020/12/27 00:19:59;;;;;;;4.20;3.90;;;5.70;98.10;;;;;;5003447;28;20187;-77
2020/12/27 00:22:25;;;;;;;4.40;4.10;;;5.80;98.20;;;;;;5011019;28;20209;-77
2020/12/27 00:24:51;;;;;;;6.33;4.70;;;5.90;98.20;;;;;;5006245;28;20188;-77
2020/12/27 00:27:17;;;;;;;3.00;2.80;;;5.90;97.90;;;;;;5012568;28;20458;-77
2020/12/27 00:29:43;;;;;;;3.72;3.42;;;6.00;97.60;;;;;;5005574;28;20778;-77
2020/12/27 00:32:09;;;;;;;4.10;3.80;;;5.90;97.80;;;;;;5012016;28;20180;-77
2020/12/27 00:34:35;;;;;;;3.80;3.60;;;5.90;97.70;;;;;;5009232;28;20483;-77
2020/12/27 00:37:01;;;;;;;3.60;3.40;;;6.10;97.60;;;;;;5010969;28;20503;-77
2020/12/27 00:39:27;;;;;;;3.57;3.37;;;6.20;97.50;;;;;;5007984;28;20430;-77
2020/12/27 00:42:00;;;;;;;3.27;3.07;;;6.20;97.00;;;;;;5010650;28;20188;-77
2020/12/27 00:44:27;;;;;;;4.03;3.72;;;6.30;97.00;;;;;;5008056;28;20257;-77
2020/12/27 00:46:53;;;;;;;3.80;3.60;;;6.30;96.60;;;;;;5006792;28;20622;-77
2020/12/27 00:49:19;;;;;;;4.00;3.80;;;6.30;96.50;;;;;;5007498;28;20246;-77
2020/12/27 00:51:45;;;;;;;3.90;3.70;;;6.10;96.70;;;;;;5001709;28;20436;-77
2020/12/27 00:54:12;;;;;;;4.07;3.73;;;6.20;97.10;;;;;;4992426;28;20628;-77
2020/12/27 00:56:38;;;;;;;3.60;3.30;;;6.20;96.80;;;;;;4998843;28;20992;-77
2020/12/27 00:59:04;;;;;;;6.90;3.10;;;6.00;96.80;;;;;;5006392;28;20188;-77
2020/12/27 01:01:30;;;;;;;3.33;3.13;;;6.00;97.20;;;;;;5008276;28;20418;-77
2020/12/27 01:03:56;;;;;;;3.50;3.30;;;6.10;97.40;;;;;;4993836;28;20226;-77
2020/12/27 01:06:26;;;;;;;3.50;3.30;;;6.00;97.30;;;;;;4997074;28;20627;-77
2020/12/27 01:08:53;;;;;;;3.20;3.00;;;5.90;97.40;;;;;;4998181;28;20429;-77
2020/12/27 01:11:19;;;;;;;3.50;3.30;;;5.80;97.70;;;;;;5003746;28;20187;-77
2020/12/27 01:13:45;;;;;;;3.20;3.03;;;5.90;97.70;;;;;;4995286;28;20543;-77
2020/12/27 01:16:18;;;;;;;3.28;3.10;;;5.80;97.60;;;;;;4995487;28;20487;-77
2020/12/27 01:18:45;;;;;;;3.35;3.15;;;5.90;97.50;;;;;;5012092;28;20306;-77
2020/12/27 01:21:11;;;;;;;3.40;3.20;;;5.80;97.40;;;;;;5003862;28;20171;-77
2020/12/27 01:23:36;;;;;;;3.00;2.90;;;5.80;97.40;;;;;;5027480;28;20301;-77
2020/12/27 01:26:02;;;;;;;2.90;2.80;;;5.80;97.40;;;;;;5010608;28;20640;-77
2020/12/27 01:28:28;;;;;;;3.27;3.13;;;5.70;97.70;;;;;;4993942;28;20204;-77
2020/12/27 01:30:54;;;;;;;3.27;3.07;;;5.90;97.60;;;;;;5006306;28;20184;-77
2020/12/27 01:33:19;;;;;;;3.30;3.10;;;5.90;97.60;;;;;;5010833;28;20189;-78
2020/12/27 01:35:46;;;;;;;3.00;2.67;;;5.80;97.50;;;;;;4994387;28;20259;-78
2020/12/27 01:38:13;;;;;;;3.13;2.93;;;6.00;97.30;;;;;;5003654;28;20184;-78
2020/12/27 01:40:40;;;;;;;3.05;2.90;;;5.90;97.00;;;;;;4992185;28;20497;-78
2020/12/27 01:43:05;;;;;;;3.25;3.03;;;6.00;97.10;;;;;;4999661;28;20637;-78
2020/12/27 01:45:31;;;;;;;3.00;2.90;;;6.00;97.00;;;;;;4992458;28;20204;-79
2020/12/27 01:47:57;;;;;;;3.00;2.90;;;6.00;96.90;;;;;;5003863;28;20542;-78
2020/12/27 01:50:24;;;;;;;2.87;2.70;;;5.70;97.10;;;;;;5015380;28;20267;-78
2020/12/27 01:52:50;;;;;;;2.78;2.60;;;5.80;97.40;;;;;;5010325;28;20504;-79
2020/12/27 01:55:16;;;;;;;2.92;2.72;;;5.90;97.20;;;;;;5010518;28;20186;-79
2020/12/27 01:58:13;;;;;;;2.95;2.85;;;6.00;96.90;;;;;;4996043;28;20228;-78
2020/12/27 02:00:38;;;;;;;2.95;2.85;;;5.90;96.90;;;;;;5008102;28;20617;-79
2020/12/27 02:03:05;;;;;;;2.50;2.40;;;5.70;97.30;;;;;;5007743;28;20230;-78
2020/12/27 02:05:31;;;;;;;3.15;2.95;;;5.60;97.60;;;;;;5029806;28;20183;-79
2020/12/27 02:07:58;;;;;;;2.87;2.77;;;5.70;97.60;;;;;;5005541;28;20204;-78
2020/12/27 02:10:23;;;;;;;2.50;2.40;;;5.80;97.40;;;;;;5011147;28;20188;-79
2020/12/27 02:12:49;;;;;;;2.53;2.43;;;5.90;97.30;;;;;;5009219;28;20623;-78
2020/12/27 02:15:15;;;;;;;4.00;2.50;;;5.90;97.20;;;;;;5011646;28;20172;-78
2020/12/27 02:17:41;;;;;;;2.80;2.70;;;5.80;97.10;;;;;;5010588;28;20183;-79
2020/12/27 02:20:06;;;;;;;2.70;2.60;;;5.90;97.10;;;;;;5011339;28;20432;-79
2020/12/27 02:22:32;;;;;;;2.40;2.30;;;6.20;96.70;;;;;;5014022;28;20176;-79
2020/12/27 02:24:58;;;;;;;2.47;2.37;;;6.10;96.40;;;;;;5011966;28;20175;-78
2020/12/27 02:27:23;;;;;;;2.50;2.40;;;6.20;96.20;;;;;;5013836;28;20280;-78
2020/12/27 02:29:49;;;;;;;2.70;2.60;;;6.10;96.40;;;;;;5012727;28;20569;-78
2020/12/27 02:32:15;;;;;;;2.93;2.77;;;6.00;96.60;;;;;;5011910;28;20262;-78
2020/12/27 02:34:41;;;;;;;2.70;2.60;;;5.90;96.50;;;;;;5013763;28;20183;-78
2020/12/27 02:37:06;;;;;;;2.50;2.40;;;5.80;96.60;;;;;;5010832;28;20659;-78
2020/12/27 02:39:32;;;;;;;2.80;2.70;;;5.90;96.80;;;;;;5014679;28;20179;-78
2020/12/27 02:41:58;;;;;;;2.30;2.20;;;5.80;96.70;;;;;;5009095;28;20542;-78
2020/12/27 02:44:23;;;;;;;2.40;2.30;;;5.70;96.50;;;;;;5013336;28;20183;-78
2020/12/27 02:46:49;;;;;;;2.43;2.40;;;5.80;96.80;;;;;;5020156;28;20257;-78
2020/12/27 02:49:15;;;;;;;2.70;2.60;;;5.80;96.60;;;;;;5015395;28;20266;-78
2020/12/27 02:51:40;;;;;;;2.50;2.40;;;5.80;96.70;;;;;;5014864;28;20179;-78
2020/12/27 02:54:06;;;;;;;2.70;2.60;;;5.90;96.50;;;;;;5000947;28;20195;-77
2020/12/27 02:56:32;;;;;;;2.60;2.50;;;5.90;96.50;;;;;;4995790;28;20238;-78
2020/12/27 02:58:59;;;;;;;2.70;2.50;;;5.90;96.50;;;;;;4996749;28;20188;-78
2020/12/27 03:01:26;;;;;;;2.50;2.40;;;5.80;96.40;;;;;;4998186;28;20179;-78
2020/12/27 03:03:52;;;;;;;3.08;2.88;;;6.00;96.80;;;;;;4994411;28;20245;-78
2020/12/27 03:06:20;;;;;;;2.63;2.53;;;6.00;96.50;;;;;;5004305;28;20175;-77
2020/12/27 03:08:54;;;;;;;3.10;2.90;;;6.00;96.30;;;;;;4994751;28;20287;-78
2020/12/27 03:11:24;;;;;;;4.35;2.78;;;6.00;96.10;;;;;;4998003;28;20223;-78
2020/12/27 03:13:50;;;;;;;2.95;2.85;;;5.80;96.30;;;;;;5003156;28;20175;-78
2020/12/27 03:16:16;;;;;;;2.90;2.80;;;5.90;96.70;;;;;;5008006;28;20188;-79
2020/12/27 03:18:42;;;;;;;2.72;2.63;;;5.80;96.20;;;;;;5009646;28;20302;-78
2020/12/27 03:21:07;;;;;;;2.37;2.27;;;5.90;96.60;;;;;;5012130;28;20278;-78
2020/12/27 03:23:33;;;;;;;2.63;2.53;;;5.90;96.80;;;;;;4992274;28;20179;-77
2020/12/27 03:25:59;;;;;;;3.00;2.80;;;5.90;96.10;;;;;;4994033;28;20266;-77
2020/12/27 03:28:25;;;;;;;3.10;2.90;;;5.80;96.30;;;;;;5010797;28;20727;-78
2020/12/27 03:30:50;;;;;;;2.80;2.60;;;5.90;96.50;;;;;;5014200;28;20222;-78
2020/12/27 03:33:16;;;;;;;3.67;3.03;;;6.00;96.20;;;;;;5008083;28;20621;-78
2020/12/27 03:35:42;;;;;;;2.97;2.77;;;6.00;96.10;;;;;;5013725;28;20229;-78
2020/12/27 03:38:07;;;;;;;2.90;2.80;;;5.70;96.30;;;;;;5009064;28;20183;-78
2020/12/27 03:40:33;;;;;;;2.97;2.77;;;5.80;96.70;;;;;;5013665;28;20175;-78
2020/12/27 03:42:59;;;;;;;2.90;2.70;;;5.70;96.90;;;;;;5004684;28;20206;-78
2020/12/27 03:45:25;;;;;;;2.77;2.67;;;5.80;97.00;;;;;;5008186;28;20176;-78
2020/12/27 03:47:51;;;;;;;2.58;2.47;;;5.80;96.80;;;;;;5013440;28;20457;-78
2020/12/27 03:50:16;;;;;;;2.93;2.83;;;5.80;96.60;;;;;;5002613;28;20188;-78
2020/12/27 03:52:42;;;;;;;2.57;2.47;;;5.70;96.60;;;;;;4993980;28;20215;-78
2020/12/27 03:55:08;;;;;;;2.50;2.40;;;5.70;96.80;;;;;;5005424;28;20206;-78
2020/12/27 03:57:33;;;;;;;2.73;2.63;;;5.80;96.90;;;;;;5013270;28;20699;-78
2020/12/27 04:00:03;;;;;;;2.60;2.50;;;5.70;97.00;;;;;;5002602;28;20277;-78
2020/12/27 04:02:28;;;;;;;2.33;2.22;;;5.50;97.10;;;;;;5008093;28;20210;-78
2020/12/27 04:04:54;;;;;;;2.30;2.20;;;5.60;97.30;;;;;;5012117;28;20585;-78
2020/12/27 04:07:20;;;;;;;2.30;2.20;;;5.60;97.30;;;;;;5007431;28;20253;-78
2020/12/27 04:09:45;;;;;;;2.40;2.30;;;5.70;97.20;;;;;;5011651;28;20254;-79
2020/12/27 04:12:13;;;;;;;3.30;2.33;;;5.70;96.90;;;;;;4997335;28;20187;-78
2020/12/27 04:14:39;;;;;;;3.28;2.80;;;5.70;97.30;;;;;;4994063;28;20191;-78
2020/12/27 04:17:06;;;;;;;2.80;2.70;;;5.80;97.20;;;;;;4994862;28;20187;-78
2020/12/27 04:19:31;;;;;;;2.50;2.40;;;5.70;97.30;;;;;;4997311;28;20694;-78
2020/12/27 04:21:57;;;;;;;2.70;2.60;;;5.60;97.20;;;;;;5012479;28;20183;-78
2020/12/27 04:24:23;;;;;;;2.30;2.20;;;5.70;97.30;;;;;;5005835;28;20666;-78
2020/12/27 04:26:49;;;;;;;2.57;2.47;;;5.60;97.40;;;;;;5013047;28;20399;-78
2020/12/27 04:29:14;;;;;;;2.57;2.47;;;5.60;97.20;;;;;;5009395;28;20321;-78
2020/12/27 04:31:40;;;;;;;2.47;2.30;;;5.60;97.40;;;;;;5011758;28;20183;-78
2020/12/27 04:34:06;;;;;;;2.30;2.20;;;5.70;97.40;;;;;;4995118;28;20280;-77
2020/12/27 04:36:31;;;;;;;2.63;2.53;;;5.60;97.30;;;;;;4992564;28;20179;-78
2020/12/27 04:38:58;;;;;;;2.43;2.33;;;5.60;97.50;;;;;;5017160;28;20183;-77
2020/12/27 04:41:24;;;;;;;2.60;2.50;;;5.70;97.30;;;;;;5024368;28;20176;-78
2020/12/27 04:43:50;;;;;;;2.80;2.60;;;5.80;97.30;;;;;;5010514;28;20623;-78
2020/12/27 04:46:16;;;;;;;2.47;2.37;;;5.70;97.00;;;;;;5006415;28;20187;-78
2020/12/27 04:48:44;;;;;;;2.60;2.40;;;5.60;97.30;;;;;;5011791;28;20214;-78
2020/12/27 04:51:12;;;;;;;3.08;2.50;;;5.60;97.40;;;;;;4999505;28;20279;-78
2020/12/27 04:53:39;;;;;;;2.30;2.20;;;5.50;97.50;;;;;;4992847;28;20180;-78
2020/12/27 04:56:07;;;;;;;2.50;2.40;;;5.70;97.40;;;;;;4995540;28;20202;-78
2020/12/27 04:58:33;;;;;;;2.60;2.50;;;5.60;97.20;;;;;;5002194;28;20593;-78
2020/12/27 05:01:00;;;;;;;3.40;2.45;;;5.60;97.30;;;;;;5004623;28;20207;-78
2020/12/27 05:03:27;;;;;;;3.30;2.70;;;5.60;97.50;;;;;;4996378;28;20206;-78
2020/12/27 05:05:53;;;;;;;2.60;2.50;;;5.60;97.60;;;;;;4998838;28;20263;-78
2020/12/27 05:08:20;;;;;;;2.78;2.40;;;5.60;97.50;;;;;;5002959;28;20210;-78
2020/12/27 05:10:47;;;;;;;2.70;2.60;;;5.60;97.50;;;;;;4992961;28;20187;-78
2020/12/27 05:13:14;;;;;;;2.65;2.50;;;5.60;97.30;;;;;;5005896;28;20262;-78
2020/12/27 05:15:40;;;;;;;2.50;2.40;;;5.60;97.40;;;;;;5009511;28;20171;-78
2020/12/27 05:18:08;;;;;;;2.63;2.53;;;5.70;97.40;;;;;;4994747;28;20187;-77
2020/12/27 05:20:36;;;;;;;2.60;2.50;;;5.70;97.40;;;;;;4995805;28;20176;-78
2020/12/27 05:23:04;;;;;;;2.50;2.40;;;5.80;97.30;;;;;;5011529;28;20177;-77
2020/12/27 05:25:31;;;;;;;2.30;2.20;;;5.80;97.50;;;;;;5004673;28;20530;-78
2020/12/27 05:28:01;;;;;;;2.60;2.47;;;5.70;97.30;;;;;;4992684;28;20733;-78
2020/12/27 05:30:28;;;;;;;2.85;2.65;;;5.80;97.30;;;;;;5000299;28;20191;-78
2020/12/27 05:32:54;;;;;;;2.70;2.60;;;5.80;97.00;;;;;;4996614;28;20302;-78
2020/12/27 05:35:24;;;;;;;2.40;2.30;;;5.80;97.20;;;;;;5012027;28;20231;-78
2020/12/27 05:37:50;;;;;;;2.40;2.30;;;5.70;97.00;;;;;;5013930;28;20191;-78
2020/12/27 05:40:17;;;;;;;2.13;2.03;;;5.90;97.10;;;;;;4996847;28;20206;-77
2020/12/27 05:42:47;;;;;;;2.55;2.45;;;5.90;97.10;;;;;;4996371;28;20316;-78
2020/12/27 05:45:17;;;;;;;2.92;2.80;;;5.80;97.00;;;;;;5007712;28;20560;-77
2020/12/27 05:47:45;;;;;;;3.10;2.55;;;5.70;97.00;;;;;;5010949;28;20222;-77
2020/12/27 05:50:16;;;;;;;2.67;2.58;;;5.70;97.40;;;;;;5014236;28;20183;-76
2020/12/27 05:52:47;;;;;;;2.90;2.70;;;5.80;97.60;;;;;;5002208;28;20200;-77
2020/12/27 05:55:19;;;;;;;2.78;2.67;;;5.80;97.20;;;;;;5008697;28;20209;-77
2020/12/27 05:57:54;;;;;;;2.92;2.72;;;5.90;97.40;;;;;;4996511;28;20227;-76
2020/12/27 06:00:23;;;;;;;2.58;2.45;;;5.80;97.40;;;;;;5005984;28;20438;-76
2020/12/27 06:02:58;;;;;;;2.42;2.33;;;5.90;97.30;;;;;;5008042;28;20527;-76
2020/12/27 06:06:01;;;;;;;2.40;2.30;;;5.90;97.30;;;;;;4996048;28;20184;-76
2020/12/27 06:08:33;;;;;;;2.35;2.17;;;5.90;97.00;;;;;;5016164;28;20199;-76
2020/12/27 06:11:05;;;;;;;2.50;2.40;;;5.90;97.10;;;;;;5014473;28;20184;-76
2020/12/27 06:14:06;;;;;;;2.70;2.50;;;6.00;97.00;;;;;;4996304;28;20187;-76
2020/12/27 06:17:02;;;;;;;2.42;2.33;;;6.00;97.10;;;;;;5003114;28;20520;-75
2020/12/27 06:19:38;;;;;;;2.92;2.72;;;6.00;96.90;;;;;;5014026;28;20211;-78
2020/12/27 06:22:09;;;;;;;2.95;2.75;;;6.00;97.10;;;;;;5006067;28;20167;-78
2020/12/27 06:24:36;;;;;;;3.08;2.83;;;6.00;97.40;;;;;;5003832;28;20267;-76
2020/12/27 06:27:03;;;;;;;2.80;2.70;;;6.00;97.20;;;;;;4995147;28;20181;-76
2020/12/27 06:29:48;;;;;;;3.28;3.08;;;6.10;97.20;;;;;;5012231;28;20409;-76
2020/12/27 06:32:17;;;;;;;3.00;2.80;;;6.00;97.00;;;;;;5016759;28;20168;-75
2020/12/27 06:34:44;;;;;;;2.95;2.75;;;6.00;97.20;;;;;;5024701;28;20241;-76
2020/12/27 06:37:10;;;;;;;3.40;3.10;;;5.90;97.40;;;;;;5020194;28;20174;-76
2020/12/27 06:39:36;;;;;;;3.33;3.07;;;5.90;97.50;;;;;;5032415;28;20531;-76
2020/12/27 06:42:13;;;;;;;2.30;2.20;;;5.90;97.60;;;;;;5011866;28;20425;-76
2020/12/27 06:44:50;;;;;;;2.50;2.40;;;5.80;97.50;;;;;;5015438;28;20191;-76
2020/12/27 06:47:17;;;;;;;3.00;2.85;;;5.70;97.80;;;;;;5013816;28;20171;-76
2020/12/27 06:49:44;;;;;;;2.72;2.63;;;5.70;97.90;;;;;;5012793;28;20195;-75
2020/12/27 06:52:25;;;;;;;2.50;2.40;;;5.80;98.10;;;;;;5033891;28;20172;-76
2020/12/27 06:54:52;;;;;;;2.40;2.30;;;5.80;98.00;;;;;;5001454;28;20183;-76
2020/12/27 06:57:40;;;;;;;3.25;3.08;;;5.90;97.70;;;;;;5009611;28;20231;-76
2020/12/27 07:00:28;;;;;;;2.42;2.33;;;5.90;97.60;;;;;;4994985;28;20180;-76
2020/12/27 07:03:10;;;;;;;2.78;2.67;;;6.00;97.70;;;;;;5004872;28;20234;-76
2020/12/27 07:05:40;;;;;;;2.35;2.25;;;6.10;97.70;;;;;;5030415;28;20189;-79
2020/12/27 07:08:10;;;;;;;2.42;2.25;;;5.90;97.30;;;;;;5023194;28;20206;-79
2020/12/27 07:10:49;;;;;;;2.30;2.20;;;5.90;97.50;;;;;;5012843;28;20194;-79
2020/12/27 07:13:16;;;;;;;2.28;2.17;;;6.00;97.60;;;;;;5003855;28;20220;-76
2020/12/27 07:15:50;;;;;;;2.10;2.00;;;6.00;97.50;;;;;;5007431;28;20176;-79
2020/12/27 07:18:23;;;;;;;2.00;2.00;;;6.10;97.50;;;;;;4993771;28;20164;-79
2020/12/27 07:20:52;;;;;;;2.35;2.25;;;6.10;97.20;;;;;;4996714;28;20419;-76
2020/12/27 07:23:29;;;;;;;2.42;2.33;;;5.80;97.70;;;;;;5014591;28;20540;-78
2020/12/27 07:25:59;;;;;;;2.40;2.30;;;5.80;98.00;;;;;;5033898;28;20163;-79
2020/12/27 07:28:26;;;;;;;2.60;2.40;;;6.00;97.90;;;;;;5016136;28;20218;-79
2020/12/27 07:31:03;;;;;;;2.35;2.25;;;6.00;97.60;;;;;;5025557;28;20186;-79
2020/12/27 07:33:32;;;;;;;1.80;1.70;;;6.10;97.80;;;;;;5027372;28;20181;-79
2020/12/27 07:36:04;;;;;;;2.30;2.20;;;6.20;97.50;;;;;;5016931;28;20175;-79
2020/12/27 07:39:25;;;;;;;1.90;1.90;;;6.20;97.30;;;;;;5028695;28;20426;-79
2020/12/27 07:41:50;;;;;;;1.63;1.63;;;6.30;97.10;;;;;;4989073;28;20649;-79
2020/12/27 07:44:17;;;;;;;1.63;1.63;;;6.20;97.00;;;;;;5013247;28;20409;-78
2020/12/27 07:46:46;;;;;;;1.93;1.83;;;6.20;96.90;;;;;;4994136;28;20540;-79
2020/12/27 07:49:13;;;;;;;1.65;1.65;;;6.30;97.00;;;;;;5008965;28;20460;-79
2020/12/27 07:51:39;;;;;;;2.88;2.03;;;6.30;96.70;;;;;;5032493;28;20182;-79
2020/12/27 07:54:05;;;;;;;2.10;2.00;;;6.40;96.90;;;;;;5015358;28;20188;-79
2020/12/27 07:56:32;;;;;;;2.08;1.98;;;6.30;96.50;;;;;;5012910;28;20980;-79
2020/12/27 07:59:03;;;;;;;2.47;2.28;;;6.30;96.60;;;;;;5009121;28;20190;-78
2020/12/27 08:01:33;;;;;;;1.95;1.90;;;6.40;96.80;;;;;;5006743;28;20216;-78
2020/12/27 08:04:04;;;;;;;2.35;2.25;;;6.30;96.40;;;;;;4997278;28;20178;-78
2020/12/27 08:06:32;;;;;;;2.13;2.03;;;6.30;96.50;;;;;;5010710;28;20167;-76
2020/12/27 08:09:09;;;;;;;1.98;1.88;;;6.30;96.70;;;;;;5007087;28;20198;-80
2020/12/27 08:11:40;;;;;;;1.80;1.70;;;6.20;97.00;;;;;;5013607;28;20171;-78
2020/12/27 08:14:08;;;;;;;1.70;1.70;;;6.30;96.80;;;;;;5002657;28;20175;-77
2020/12/27 08:16:37;;;;;;;1.90;1.85;;;6.30;96.90;;;;;;5012695;28;20183;-78
2020/12/27 08:19:10;;;;;;;2.28;2.13;;;6.40;97.10;;;;;;4997242;28;20191;-77
2020/12/27 08:21:38;;;;;;;2.10;2.00;;;6.30;97.10;;;;;;4994672;28;20156;-75
2020/12/27 08:24:06;;;;;;;1.70;1.60;;;6.20;97.20;;;;;;5005674;28;20623;-74
2020/12/27 08:26:35;;;;;;;1.80;1.70;;;6.10;97.60;;;;;;5009723;28;20183;-77
2020/12/27 08:29:18;;;;;;;1.95;1.85;;;6.10;97.60;;;;;;5003074;28;20203;-77
2020/12/27 08:31:46;;;;;;;1.90;1.80;;;6.20;97.50;;;;;;5003483;28;20179;-77
2020/12/27 08:34:17;;;;;;;1.63;1.63;;;6.30;97.30;;;;;;5010907;28;20429;-78
2020/12/27 08:36:51;;;;;;;1.88;1.77;;;6.20;97.40;;;;;;5013989;28;20192;-79
2020/12/27 08:39:38;;;;;;;2.25;2.05;;;6.20;97.40;;;;;;4997989;28;20789;-91
2020/12/27 08:42:05;;;;;;;1.70;1.60;;;6.50;99.60;;;;;;5012247;28;20184;-86
2020/12/27 08:44:57;;;;;;;1.90;1.80;;;6.80;99.90;;;;;;5008514;28;20175;-86
2020/12/27 08:47:46;;;;;;;1.90;1.80;;;7.20;99.90;;;;;;5009373;28;20460;-87
2020/12/27 08:50:30;;;;;;;4.00;2.30;;;7.50;98.20;;;;;;5010416;28;20766;-84
2020/12/27 08:52:59;;;;;;;2.03;1.93;;;7.80;97.30;;;;;;5004962;28;20397;-86
2020/12/27 08:55:27;;;;;;;1.97;1.87;;;8.00;97.80;;;;;;4992000;28;20397;-87
2020/12/27 08:57:54;;;;;;;1.97;1.90;;;8.30;96.90;;;;;;5003959;28;20438;-87
2020/12/27 09:00:21;;;;;;;1.73;1.73;;;7.90;95.40;;;;;;5009887;28;20475;-86
2020/12/27 09:02:57;;;;;;;4.73;4.27;;;8.00;97.50;;;;;;4993896;28;20403;-86
2020/12/27 09:05:28;;;;;;;37.73;28.93;;;8.30;96.60;;;;;;5005894;28;20421;-81
2020/12/27 09:07:54;;;;;;;21.53;12.83;;;8.50;96.80;;;;;;5009522;28;20464;-81
2020/12/27 09:10:21;;;;;;;4.10;3.30;;;8.60;96.10;;;;;;5009113;28;20428;-82
2020/12/27 09:13:08;;;;;;;2.40;2.30;;;8.50;96.10;;;;;;5007424;28;20484;-81
2020/12/27 09:15:45;;;;;;;2.50;2.40;;;8.40;94.50;;;;;;5004583;28;21264;-79
2020/12/27 09:18:15;;;;;;;2.30;1.90;;;8.50;94.70;;;;;;5007618;28;20909;-79
2020/12/27 09:20:43;;;;;;;2.40;2.30;;;8.00;93.10;;;;;;5001207;28;20899;-76
2020/12/27 09:23:18;;;;;;;2.40;2.30;;;8.10;94.30;;;;;;5005562;28;20465;-75
2020/12/27 09:25:46;;;;;;;2.20;2.10;;;7.90;95.40;;;;;;5010962;28;20426;-76
2020/12/27 09:28:18;;;;;;;1.80;1.80;;;8.20;94.50;;;;;;5009081;28;20452;-77
2020/12/27 09:31:00;;;;;;;2.20;2.10;;;8.10;93.80;;;;;;5006867;28;20781;-76
2020/12/27 09:33:30;;;;;;;2.00;1.90;;;8.30;95.90;;;;;;5006326;28;20467;-75
2020/12/27 09:36:00;;;;;;;2.10;2.00;;;8.50;94.40;;;;;;5007599;28;20465;-76
2020/12/27 09:38:32;;;;;;;2.27;2.17;;;8.30;94.00;;;;;;5008664;28;21238;-75
2020/12/27 09:41:23;;;;;;;1.80;1.80;;;8.30;93.80;;;;;;5010266;28;20771;-76
2020/12/27 09:43:58;;;;;;;2.00;1.90;;;8.10;95.40;;;;;;5003563;28;20440;-75
2020/12/27 09:46:40;;;;;;;2.10;2.10;;;7.70;94.40;;;;;;5003273;28;20430;-78
2020/12/27 09:49:20;;;;;;;2.20;2.10;;;7.60;95.20;;;;;;5008008;28;20457;-83
2020/12/27 09:51:46;;;;;;;2.10;2.00;;;7.50;96.10;;;;;;5007076;28;20427;-86
2020/12/27 09:54:12;;;;;;;2.77;2.63;;;7.40;94.80;;;;;;4999096;28;20494;-78
2020/12/27 09:56:43;;;;;;;2.30;2.20;;;7.40;97.00;;;;;;4998073;28;20446;-84
2020/12/27 09:59:08;;;;;;;2.07;1.97;;;7.40;96.10;;;;;;5021645;28;20502;-90
2020/12/27 10:01:34;;;;;;;2.30;2.30;;;7.20;95.10;;;;;;5011557;28;20914;-78
2020/12/27 10:04:00;;;;;;;2.43;2.33;;;7.40;95.80;;;;;;5006604;28;20264;-83
2020/12/27 10:06:26;;;;;;;15.30;12.17;;;7.30;94.60;;;;;;4992751;28;20180;-78
2020/12/27 10:08:51;;;;;;;2.80;2.70;;;7.20;94.60;;;;;;4992826;28;20503;-81
2020/12/27 10:11:17;;;;;;;2.63;2.53;;;7.20;94.60;;;;;;5001757;28;20758;-82
2020/12/27 10:13:43;;;;;;;2.10;2.10;;;7.00;95.00;;;;;;5002317;28;20187;-81
2020/12/27 10:16:09;;;;;;;2.20;2.20;;;7.10;95.20;;;;;;5012055;28;20179;-81
2020/12/27 10:18:35;;;;;;;2.50;2.40;;;7.00;95.40;;;;;;5003380;28;20186;-82
2020/12/27 10:21:00;;;;;;;2.30;2.20;;;7.10;95.40;;;;;;4998973;28;20183;-87
2020/12/27 10:23:26;;;;;;;2.17;2.07;;;6.90;95.70;;;;;;5012015;28;20750;-80
2020/12/27 10:25:52;;;;;;;2.63;2.53;;;6.90;95.90;;;;;;5002870;28;20515;-84
2020/12/27 10:28:17;;;;;;;2.47;2.37;;;6.90;96.00;;;;;;5024315;28;20250;-80
2020/12/27 10:30:43;;;;;;;2.40;2.30;;;6.90;96.20;;;;;;5007871;28;20259;-76
2020/12/27 10:33:12;;;;;;;2.40;2.30;;;6.90;96.20;;;;;;5007847;28;20190;-77
2020/12/27 10:35:38;;;;;;;2.33;2.23;;;6.90;96.30;;;;;;5018245;28;20184;-81
2020/12/27 10:38:03;;;;;;;2.73;2.63;;;6.90;96.00;;;;;;5012261;28;20463;-77
2020/12/27 10:40:29;;;;;;;2.83;2.63;;;6.90;96.20;;;;;;5003756;28;20424;-78
2020/12/27 10:42:55;;;;;;;2.33;1.97;;;6.80;96.70;;;;;;5006659;28;20294;-79
2020/12/27 10:45:20;;;;;;;2.47;2.37;;;6.80;96.70;;;;;;5007600;28;20189;-78
2020/12/27 10:47:46;;;;;;;38.73;22.83;;;6.90;96.70;;;;;;5015140;28;20225;-79
2020/12/27 10:50:12;;;;;;;2.60;2.50;;;7.00;96.70;;;;;;5003915;28;20192;-78
2020/12/27 10:52:38;;;;;;;2.77;2.57;;;7.00;96.50;;;;;;5005998;28;20207;-85
2020/12/27 10:55:03;;;;;;;2.20;2.10;;;6.90;96.30;;;;;;5006958;28;20258;-82
2020/12/27 10:57:29;;;;;;;2.27;2.23;;;6.90;96.10;;;;;;4996750;28;20637;-78
2020/12/27 10:59:55;;;;;;;2.17;2.13;;;7.00;95.70;;;;;;5003142;28;20181;-82
2020/12/27 11:02:20;;;;;;;2.20;2.10;;;7.00;96.00;;;;;;5006954;28;20304;-75
2020/12/27 11:04:46;;;;;;;2.47;2.37;;;7.00;95.90;;;;;;5005500;28;20185;-82
2020/12/27 11:07:12;;;;;;;2.40;2.30;;;7.00;96.10;;;;;;5011829;28;20192;-78
2020/12/27 11:09:38;;;;;;;2.60;2.50;;;7.00;95.90;;;;;;5013861;28;20401;-76
2020/12/27 11:12:03;;;;;;;2.70;2.60;;;7.00;96.20;;;;;;5018706;28;20182;-84
2020/12/27 11:14:29;;;;;;;2.30;2.30;;;6.90;97.00;;;;;;5003209;28;20197;-72
2020/12/27 11:16:56;;;;;;;2.20;2.20;;;7.00;98.00;;;;;;4994558;28;20193;-78
2020/12/27 11:19:21;;;;;;;3.03;2.90;;;7.00;98.10;;;;;;5009330;28;20194;-75
2020/12/27 11:21:48;;;;;;;2.83;2.73;;;6.90;98.90;;;;;;5024037;28;20505;-74
2020/12/27 11:24:17;;;;;;;2.50;2.40;;;6.90;99.80;;;;;;5009891;28;20185;-75
2020/12/27 11:26:42;;;;;;;2.40;2.23;;;6.90;99.90;;;;;;5021094;28;20422;-74
2020/12/27 11:29:08;;;;;;;2.80;2.70;;;6.90;99.90;;;;;;5010515;28;20488;-75
2020/12/27 11:31:34;;;;;;;2.83;2.63;;;6.80;99.90;;;;;;5013491;28;20191;-76
2020/12/27 11:34:01;;;;;;;2.70;2.60;;;6.70;99.90;;;;;;5011937;28;20171;-78
2020/12/27 11:36:26;;;;;;;3.00;2.80;;;6.70;99.90;;;;;;5007995;28;20574;-76
2020/12/27 11:38:52;;;;;;;2.77;2.67;;;6.70;99.90;;;;;;5013810;28;20418;-76
2020/12/27 11:41:18;;;;;;;2.80;2.70;;;6.50;99.90;;;;;;5013276;28;20175;-78
2020/12/27 11:43:44;;;;;;;5.33;2.90;;;6.50;99.90;;;;;;5012436;28;20180;-76
2020/12/27 11:46:09;;;;;;;3.10;2.90;;;6.50;99.90;;;;;;5013234;28;20207;-76
2020/12/27 11:48:35;;;;;;;2.93;2.83;;;6.50;99.90;;;;;;5012673;28;20732;-76
2020/12/27 11:51:01;;;;;;;2.80;2.70;;;6.40;99.90;;;;;;5013648;28;20404;-76
2020/12/27 11:53:27;;;;;;;3.00;2.90;;;6.50;99.90;;;;;;5011907;28;20385;-77
2020/12/27 11:55:52;;;;;;;3.10;3.00;;;6.40;99.90;;;;;;5013272;28;20556;-76
2020/12/27 11:58:18;;;;;;;3.20;3.00;;;6.40;99.90;;;;;;5012621;28;20223;-77
2020/12/27 12:00:44;;;;;;;3.00;2.90;;;6.40;99.90;;;;;;5007841;28;20643;-76
2020/12/27 12:03:10;;;;;;;3.00;2.90;;;6.40;99.90;;;;;;5009559;28;20175;-76
2020/12/27 12:05:35;;;;;;;3.07;2.87;;;6.50;99.90;;;;;;5012977;28;20183;-76
2020/12/27 12:08:01;;;;;;;2.87;2.77;;;6.50;99.90;;;;;;5012156;28;20208;-76
2020/12/27 12:10:27;;;;;;;2.80;2.70;;;6.40;99.90;;;;;;5013050;28;20184;-76
2020/12/27 12:12:53;;;;;;;3.37;3.27;;;6.50;99.90;;;;;;5012368;28;20922;-76
2020/12/27 12:15:19;;;;;;;3.23;3.03;;;6.50;99.90;;;;;;5012413;28;20922;-74
2020/12/27 12:17:44;;;;;;;2.60;2.50;;;6.40;99.90;;;;;;5013528;28;20207;-75
2020/12/27 12:20:42;;;;;;;2.60;2.50;;;6.50;99.90;;;;;;5012031;28;20512;-74
2020/12/27 12:22:56;;;;;;;2.30;2.20;;;6.60;99.90;;;;;;5013208;28;20186;-75
2020/12/27 12:25:22;;;;;;;4.30;2.77;;;6.50;99.80;;;;;;5011355;28;20191;-75
2020/12/27 12:27:48;;;;;;;2.13;2.10;;;6.50;99.80;;;;;;5012524;28;20265;-75
2020/12/27 12:30:13;;;;;;;2.43;2.33;;;6.50;99.40;;;;;;5013067;28;20434;-74
2020/12/27 12:32:39;;;;;;;2.40;2.30;;;6.50;99.40;;;;;;5012667;28;20254;-75
2020/12/27 12:35:05;;;;;;;2.50;2.40;;;6.40;99.20;;;;;;5012653;28;20180;-74
2020/12/27 12:37:31;;;;;;;2.60;2.50;;;6.40;99.40;;;;;;5011214;28;20235;-75
2020/12/27 12:39:56;;;;;;;2.60;2.50;;;6.50;99.50;;;;;;5012503;28;20180;-75
2020/12/27 12:42:22;;;;;;;2.90;2.80;;;6.50;99.00;;;;;;5011603;28;20177;-76
2020/12/27 12:44:48;;;;;;;3.35;3.08;;;6.60;99.30;;;;;;5003668;28;20446;-75
2020/12/27 12:47:14;;;;;;;4.53;4.20;;;6.60;99.10;;;;;;5031816;28;20170;-74
2020/12/27 12:49:40;;;;;;;3.07;2.90;;;6.50;99.00;;;;;;5028245;28;20408;-75
2020/12/27 12:52:05;;;;;;;2.27;2.20;;;6.60;99.20;;;;;;5012578;28;20309;-74
2020/12/27 12:54:31;;;;;;;2.67;2.50;;;6.60;98.90;;;;;;5011532;28;20276;-74
2020/12/27 12:56:57;;;;;;;2.70;2.67;;;6.60;99.20;;;;;;5012497;28;20230;-74
2020/12/27 12:59:22;;;;;;;2.67;2.57;;;6.70;99.20;;;;;;5010371;28;20626;-76
2020/12/27 13:01:49;;;;;;;2.73;2.63;;;6.60;99.20;;;;;;5011863;28;20211;-75
2020/12/27 13:04:15;;;;;;;2.45;2.35;;;6.60;99.50;;;;;;5013131;28;20188;-74